Time;durP1;ratioP1;P1;durP2;ratioP2;P2;SDS_P1;SDS_P2;PMS_P1;PMS_P2;Temp;Humidity;BMP_temperature;BMP_pressure;BME280_temperature;BME280_humidity;BME280_pressure;Samples;Min_cycle;Max_cycle;Signal;HPM_P1;HPM_P2
2021/07/10 00:01:20;;;;;;;19.75;13.25;;;17.10;99.90;;;;;;5051700;28;20085;-69
2021/07/10 00:03:45;;;;;;;21.20;13.60;;;17.10;99.90;;;;;;5053108;28;20067;-69
2021/07/10 00:06:11;;;;;;;22.25;13.52;;;16.90;99.90;;;;;;5052909;28;20033;-69
2021/07/10 00:08:38;;;;;;;21.50;14.35;;;16.90;99.90;;;;;;5051931;28;20461;-69
2021/07/10 00:11:05;;;;;;;22.70;14.95;;;16.80;99.90;;;;;;5052544;28;20044;-69
2021/07/10 00:13:31;;;;;;;21.60;15.05;;;16.80;99.90;;;;;;5053006;28;20032;-69
2021/07/10 00:15:57;;;;;;;20.17;13.98;;;16.80;99.90;;;;;;5052785;28;20461;-69
2021/07/10 00:18:23;;;;;;;21.33;14.07;;;16.80;99.90;;;;;;5052735;28;20646;-69
2021/07/10 00:20:49;;;;;;;24.30;14.05;;;16.80;99.90;;;;;;5051821;28;20611;-69
2021/07/10 00:23:16;;;;;;;21.58;13.80;;;16.70;99.90;;;;;;5052517;28;20033;-70
2021/07/10 00:25:42;;;;;;;21.05;14.35;;;16.70;99.90;;;;;;5034655;28;20032;-70
2021/07/10 00:28:09;;;;;;;21.92;14.23;;;16.70;99.90;;;;;;5051457;28;20139;-70
2021/07/10 00:30:35;;;;;;;21.20;15.40;;;16.60;99.90;;;;;;5052379;28;20028;-70
2021/07/10 00:33:02;;;;;;;21.58;14.02;;;16.60;99.90;;;;;;5052088;28;20607;-70
2021/07/10 00:35:29;;;;;;;24.70;15.88;;;16.60;99.90;;;;;;5051219;28;20083;-70
2021/07/10 00:37:55;;;;;;;23.70;14.65;;;16.60;99.90;;;;;;5051195;28;20542;-70
2021/07/10 00:40:21;;;;;;;22.02;15.48;;;16.60;99.90;;;;;;5051371;28;20040;-70
2021/07/10 00:42:47;;;;;;;23.27;15.50;;;16.50;99.90;;;;;;5050939;28;20401;-70
2021/07/10 00:45:15;;;;;;;22.80;15.50;;;16.60;99.90;;;;;;5052225;28;20029;-70
2021/07/10 00:47:41;;;;;;;20.20;13.63;;;16.60;99.90;;;;;;5051246;28;20428;-70
2021/07/10 00:50:21;;;;;;;18.83;11.38;;;16.50;99.90;;;;;;5052067;28;20025;-70
2021/07/10 00:52:47;;;;;;;16.80;9.60;;;16.40;99.90;;;;;;5050826;28;20036;-70
2021/07/10 00:55:13;;;;;;;17.52;12.05;;;16.30;99.90;;;;;;5052104;28;20029;-70
2021/07/10 00:57:42;;;;;;;26.70;12.82;;;16.30;99.90;;;;;;5050827;28;20516;-70
2021/07/10 01:00:17;;;;;;;16.65;10.73;;;16.30;99.90;;;;;;5050667;28;20041;-70
2021/07/10 01:02:46;;;;;;;14.88;9.88;;;16.30;99.90;;;;;;5052059;28;20035;-70
2021/07/10 01:05:20;;;;;;;14.38;10.23;;;16.30;99.90;;;;;;5050957;28;20029;-70
2021/07/10 01:07:46;;;;;;;19.25;10.30;;;16.30;99.90;;;;;;5050859;28;20029;-70
2021/07/10 01:10:15;;;;;;;13.93;10.15;;;16.30;99.90;;;;;;5052012;28;20112;-70
2021/07/10 01:12:47;;;;;;;13.77;10.10;;;16.30;99.90;;;;;;5050524;28;20045;-70
2021/07/10 01:15:15;;;;;;;17.58;11.02;;;16.30;99.90;;;;;;5051087;28;20053;-69
2021/07/10 01:17:44;;;;;;;15.00;10.90;;;16.30;99.90;;;;;;5051698;28;20033;-69
2021/07/10 01:20:18;;;;;;;19.38;12.18;;;16.30;99.90;;;;;;5050460;28;20120;-69
2021/07/10 01:22:46;;;;;;;18.38;11.18;;;16.20;99.90;;;;;;5052054;28;20044;-69
2021/07/10 01:25:17;;;;;;;18.70;10.65;;;16.30;99.90;;;;;;5051898;28;20483;-69
2021/07/10 01:27:43;;;;;;;17.03;11.23;;;16.20;99.90;;;;;;5052190;28;20037;-69
2021/07/10 01:30:15;;;;;;;16.60;11.45;;;16.20;99.90;;;;;;5051896;28;20044;-69
2021/07/10 01:32:43;;;;;;;18.05;10.80;;;16.20;99.90;;;;;;5052220;28;20033;-69
2021/07/10 01:35:10;;;;;;;16.45;11.52;;;16.20;99.90;;;;;;5054423;28;20508;-69
2021/07/10 01:37:44;;;;;;;16.38;11.82;;;16.20;99.90;;;;;;5037935;28;20033;-69
2021/07/10 01:40:16;;;;;;;19.40;11.32;;;16.20;99.90;;;;;;5038183;28;20359;-69
2021/07/10 01:42:43;;;;;;;17.42;12.90;;;16.20;99.90;;;;;;5054789;28;20104;-69
2021/07/10 01:45:10;;;;;;;19.95;10.70;;;16.20;99.90;;;;;;5055479;28;20037;-69
2021/07/10 01:47:35;;;;;;;8.30;6.68;;;16.10;99.90;;;;;;5054318;28;20135;-69
2021/07/10 01:50:07;;;;;;;11.15;7.55;;;16.10;99.90;;;;;;5055380;28;20123;-70
2021/07/10 01:52:34;;;;;;;8.70;7.28;;;15.90;99.90;;;;;;5054013;28;20398;-70
2021/07/10 01:55:03;;;;;;;13.05;8.85;;;15.90;99.90;;;;;;5055311;28;20125;-70
2021/07/10 01:57:28;;;;;;;15.32;9.10;;;15.80;99.90;;;;;;5055284;28;20397;-70
2021/07/10 01:59:54;;;;;;;11.90;9.73;;;15.70;99.90;;;;;;5055187;28;20025;-70
2021/07/10 02:02:20;;;;;;;19.58;11.05;;;15.50;99.90;;;;;;5053948;28;20504;-70
2021/07/10 02:04:51;;;;;;;19.30;12.95;;;15.40;99.90;;;;;;5055235;28;20037;-70
2021/07/10 02:07:18;;;;;;;27.63;13.65;;;15.50;99.90;;;;;;5053969;28;20033;-70
2021/07/10 02:09:45;;;;;;;20.77;13.50;;;15.50;99.90;;;;;;5053942;28;20025;-70
2021/07/10 02:12:13;;;;;;;19.48;12.75;;;15.50;99.90;;;;;;5054699;28;20059;-70
2021/07/10 02:14:39;;;;;;;18.80;13.50;;;15.60;99.90;;;;;;5055246;28;20033;-70
2021/07/10 02:17:06;;;;;;;19.17;12.50;;;15.60;99.90;;;;;;5054593;28;20037;-70
2021/07/10 02:19:33;;;;;;;15.23;10.80;;;15.70;99.90;;;;;;5055217;28;20020;-69
2021/07/10 02:21:58;;;;;;;19.83;10.70;;;15.80;99.90;;;;;;5053524;28;20101;-69
2021/07/10 02:24:25;;;;;;;16.45;10.77;;;15.80;99.90;;;;;;5055012;28;20057;-69
2021/07/10 02:26:51;;;;;;;14.65;10.27;;;15.80;99.90;;;;;;5053462;28;20039;-68
2021/07/10 02:29:16;;;;;;;19.38;11.23;;;15.80;99.90;;;;;;5053398;28;20127;-69
2021/07/10 02:31:42;;;;;;;15.20;10.15;;;15.80;99.90;;;;;;5054826;28;20029;-69
2021/07/10 02:34:09;;;;;;;12.77;9.18;;;15.70;99.90;;;;;;5053151;28;20041;-70
2021/07/10 02:36:34;;;;;;;13.05;9.32;;;15.60;99.90;;;;;;5055023;28;20029;-69
2021/07/10 02:39:00;;;;;;;16.10;9.52;;;15.50;99.90;;;;;;5052979;28;20029;-69
2021/07/10 02:41:26;;;;;;;17.27;10.43;;;15.50;99.90;;;;;;5053280;28;20029;-69
2021/07/10 02:43:52;;;;;;;16.95;10.55;;;15.40;99.90;;;;;;5052661;28;20048;-69
2021/07/10 02:46:18;;;;;;;15.73;10.80;;;15.40;99.90;;;;;;5054282;28;20029;-69
2021/07/10 02:48:46;;;;;;;20.35;10.45;;;15.40;99.90;;;;;;5053163;28;20469;-70
2021/07/10 02:51:11;;;;;;;14.25;9.93;;;15.50;99.90;;;;;;5053164;28;20037;-70
2021/07/10 02:53:37;;;;;;;19.38;10.73;;;15.50;99.90;;;;;;5054284;28;20124;-69
2021/07/10 02:56:03;;;;;;;13.45;10.05;;;15.40;99.90;;;;;;5054533;28;20041;-69
2021/07/10 02:58:29;;;;;;;16.45;10.55;;;15.40;99.90;;;;;;5052983;28;20084;-70
2021/07/10 03:00:54;;;;;;;17.13;10.20;;;15.40;99.90;;;;;;5054359;28;20087;-70
2021/07/10 03:03:21;;;;;;;14.80;11.18;;;15.40;99.90;;;;;;5054152;28;20516;-70
2021/07/10 03:05:48;;;;;;;19.10;10.77;;;15.50;99.90;;;;;;5054124;28;20032;-71
2021/07/10 03:08:14;;;;;;;15.40;10.95;;;15.60;99.90;;;;;;5053892;28;20048;-70
2021/07/10 03:10:42;;;;;;;16.48;10.43;;;15.60;99.90;;;;;;5054115;28;20025;-70
2021/07/10 03:13:08;;;;;;;17.50;11.43;;;15.60;99.90;;;;;;5053720;28;20037;-70
2021/07/10 03:15:35;;;;;;;16.20;10.35;;;15.60;99.90;;;;;;5054066;28;20056;-69
2021/07/10 03:18:01;;;;;;;16.83;11.00;;;15.60;99.90;;;;;;5052898;28;20037;-70
2021/07/10 03:20:30;;;;;;;12.75;9.13;;;15.50;99.90;;;;;;5053770;28;20059;-70
2021/07/10 03:22:56;;;;;;;11.60;7.60;;;15.40;99.90;;;;;;5053329;28;20040;-70
2021/07/10 03:25:22;;;;;;;11.65;7.47;;;15.10;99.90;;;;;;5054040;28;20525;-70
2021/07/10 03:27:49;;;;;;;9.57;7.15;;;15.10;99.90;;;;;;5053509;28;20037;-70
2021/07/10 03:30:19;;;;;;;14.48;8.23;;;15.10;99.90;;;;;;5052106;28;20040;-70
2021/07/10 03:32:45;;;;;;;9.55;7.10;;;15.10;99.90;;;;;;5053752;28;20466;-70
2021/07/10 03:35:13;;;;;;;14.70;8.43;;;15.10;99.90;;;;;;5052367;28;20082;-70
2021/07/10 03:37:40;;;;;;;17.48;7.53;;;15.20;99.90;;;;;;5053597;28;20037;-70
2021/07/10 03:40:10;;;;;;;10.23;7.47;;;15.10;99.90;;;;;;5052243;28;20112;-70
2021/07/10 03:42:37;;;;;;;10.35;6.93;;;15.20;99.90;;;;;;5053720;28;20036;-70
2021/07/10 03:45:09;;;;;;;18.83;10.90;;;15.20;99.90;;;;;;5052008;28;20060;-70
2021/07/10 03:47:35;;;;;;;22.98;10.73;;;15.10;99.90;;;;;;5051977;28;20540;-70
2021/07/10 03:50:02;;;;;;;16.38;10.70;;;15.10;99.90;;;;;;5051832;28;20033;-70
2021/07/10 03:52:28;;;;;;;19.92;13.05;;;15.10;99.90;;;;;;5051931;28;20036;-70
2021/07/10 03:54:54;;;;;;;17.65;11.00;;;15.10;99.90;;;;;;5053275;28;20492;-70
2021/07/10 03:57:20;;;;;;;16.85;11.43;;;15.10;99.90;;;;;;5051130;28;20393;-70
2021/07/10 03:59:45;;;;;;;16.30;10.70;;;15.10;99.90;;;;;;5052965;28;20029;-71
2021/07/10 04:02:11;;;;;;;18.38;10.93;;;15.20;99.90;;;;;;5052780;28;20025;-70
2021/07/10 04:04:37;;;;;;;16.85;10.60;;;15.20;99.90;;;;;;5052892;28;20063;-70
2021/07/10 04:07:03;;;;;;;15.75;10.73;;;15.30;99.90;;;;;;5051662;28;20553;-70
2021/07/10 04:09:28;;;;;;;17.27;11.07;;;15.30;99.90;;;;;;5051556;28;20032;-70
2021/07/10 04:11:54;;;;;;;16.00;10.30;;;15.20;99.90;;;;;;5052438;28;20048;-70
2021/07/10 04:14:20;;;;;;;16.33;9.27;;;15.30;99.90;;;;;;5052524;28;20033;-71
2021/07/10 04:16:45;;;;;;;15.77;8.55;;;15.30;99.90;;;;;;5052945;28;20052;-70
2021/07/10 04:19:11;;;;;;;10.02;7.20;;;15.30;99.90;;;;;;5052347;28;20033;-70
2021/07/10 04:21:37;;;;;;;11.07;8.23;;;15.30;99.90;;;;;;5052652;28;20036;-70
2021/07/10 04:24:03;;;;;;;12.82;8.90;;;15.40;99.90;;;;;;5052561;28;20086;-70
2021/07/10 04:26:29;;;;;;;14.95;10.15;;;15.40;99.90;;;;;;5052817;28;20033;-70
2021/07/10 04:28:54;;;;;;;13.90;9.95;;;15.50;99.90;;;;;;5051472;28;20045;-70
2021/07/10 04:31:20;;;;;;;15.90;9.90;;;15.50;99.90;;;;;;5052171;28;20057;-70
2021/07/10 04:33:46;;;;;;;15.23;10.43;;;15.60;99.90;;;;;;5052564;28;20469;-70
2021/07/10 04:36:12;;;;;;;17.83;10.05;;;15.60;99.90;;;;;;5052148;28;20174;-70
2021/07/10 04:38:38;;;;;;;14.63;10.15;;;15.60;99.90;;;;;;5052524;28;20032;-70
2021/07/10 04:41:08;;;;;;;17.45;9.55;;;15.50;99.90;;;;;;5052371;28;20104;-70
2021/07/10 04:43:35;;;;;;;17.55;10.45;;;15.50;99.90;;;;;;5052185;28;20113;-70
2021/07/10 04:46:01;;;;;;;19.52;10.80;;;15.50;99.90;;;;;;5051934;28;20367;-70
2021/07/10 04:48:28;;;;;;;13.75;9.48;;;15.60;99.90;;;;;;5050928;28;20131;-70
2021/07/10 04:50:54;;;;;;;13.27;9.25;;;15.70;99.90;;;;;;5051172;28;20033;-70
2021/07/10 04:53:19;;;;;;;15.52;9.80;;;15.70;99.90;;;;;;5051764;28;20032;-70
2021/07/10 04:55:45;;;;;;;15.82;10.38;;;15.80;99.90;;;;;;5051994;28;20389;-70
2021/07/10 04:58:11;;;;;;;14.35;10.43;;;15.80;99.90;;;;;;5050883;28;20029;-70
2021/07/10 05:00:37;;;;;;;22.02;12.43;;;15.80;99.90;;;;;;5051035;28;20041;-70
2021/07/10 05:03:03;;;;;;;24.95;15.32;;;15.90;99.90;;;;;;5051673;28;20036;-71
2021/07/10 05:05:29;;;;;;;45.80;26.50;;;16.10;99.90;;;;;;5051898;28;20055;-71
2021/07/10 05:07:54;;;;;;;21.30;13.63;;;16.30;99.90;;;;;;5050643;28;20228;-71
2021/07/10 05:10:21;;;;;;;17.55;12.23;;;16.20;99.90;;;;;;5050300;28;20029;-71
2021/07/10 05:12:47;;;;;;;14.38;10.43;;;16.30;99.90;;;;;;5050369;28;20094;-71
2021/07/10 05:15:14;;;;;;;18.23;11.20;;;16.40;99.90;;;;;;5051983;28;20029;-70
2021/07/10 05:17:41;;;;;;;19.85;11.52;;;16.50;99.90;;;;;;5051745;28;20170;-70
2021/07/10 05:20:09;;;;;;;19.55;13.15;;;16.50;99.90;;;;;;5051658;28;20065;-70
2021/07/10 05:22:35;;;;;;;22.63;16.52;;;16.60;99.90;;;;;;5050670;28;20044;-69
2021/07/10 05:25:02;;;;;;;27.10;18.35;;;16.80;99.90;;;;;;5050337;28;20025;-70
2021/07/10 05:27:28;;;;;;;31.33;18.75;;;16.90;99.90;;;;;;5052002;28;20056;-69
2021/07/10 05:29:53;;;;;;;30.48;20.73;;;17.00;99.90;;;;;;5051559;28;20520;-69
2021/07/10 05:32:19;;;;;;;30.30;20.38;;;17.00;99.90;;;;;;5048220;28;20033;-69
2021/07/10 05:34:45;;;;;;;34.10;22.02;;;17.00;99.90;;;;;;5030558;28;20037;-74
2021/07/10 05:37:11;;;;;;;31.70;20.63;;;17.00;99.90;;;;;;5031757;28;20044;-72
2021/07/10 05:39:38;;;;;;;32.90;20.80;;;17.20;99.90;;;;;;5031852;28;20025;-72
2021/07/10 05:42:06;;;;;;;79.30;51.10;;;17.20;99.90;;;;;;5047853;28;20481;-78
2021/07/10 05:44:32;;;;;;;40.50;27.38;;;17.30;99.90;;;;;;5050504;28;20044;-73
2021/07/10 05:46:58;;;;;;;32.72;21.02;;;17.40;99.90;;;;;;5051493;28;20037;-75
2021/07/10 05:49:24;;;;;;;31.80;20.17;;;17.50;99.90;;;;;;5051194;28;20029;-72
2021/07/10 05:51:50;;;;;;;28.88;19.42;;;17.60;99.90;;;;;;5051191;28;20040;-70
2021/07/10 05:54:18;;;;;;;31.58;18.73;;;17.60;99.90;;;;;;5051498;28;20036;-71
2021/07/10 05:56:44;;;;;;;31.08;19.65;;;17.70;99.90;;;;;;5051421;28;20424;-75
2021/07/10 05:59:10;;;;;;;31.10;18.80;;;17.60;99.90;;;;;;5051766;28;20099;-77
2021/07/10 06:01:36;;;;;;;32.75;19.95;;;17.70;99.90;;;;;;5051585;28;20037;-74
2021/07/10 06:04:02;;;;;;;36.50;19.73;;;17.40;99.90;;;;;;5037301;28;20041;-73
2021/07/10 06:06:28;;;;;;;29.02;20.23;;;17.70;99.90;;;;;;5031520;28;20079;-71
2021/07/10 06:08:54;;;;;;;31.15;20.25;;;17.60;99.90;;;;;;5031719;28;20486;-77
2021/07/10 06:11:20;;;;;;;29.55;19.85;;;17.60;99.90;;;;;;5013248;28;20037;-73
2021/07/10 06:13:45;;;;;;;26.40;18.00;;;17.60;99.90;;;;;;5030242;28;20523;-76
2021/07/10 06:16:12;;;;;;;27.25;18.52;;;17.70;99.90;;;;;;5031373;28;20518;-81
2021/07/10 06:18:38;;;;;;;27.70;16.83;;;17.80;99.90;;;;;;5030467;28;20116;-75
2021/07/10 06:21:04;;;;;;;22.02;14.60;;;17.70;99.90;;;;;;5035271;28;20061;-73
2021/07/10 06:23:29;;;;;;;23.38;15.63;;;17.60;99.90;;;;;;5034932;28;20029;-72
2021/07/10 06:25:55;;;;;;;22.70;15.70;;;17.80;99.90;;;;;;5034632;28;20043;-71
2021/07/10 06:28:22;;;;;;;28.30;14.77;;;17.80;99.90;;;;;;5034650;28;20072;-71
2021/07/10 06:30:48;;;;;;;25.35;15.18;;;17.80;99.90;;;;;;5034891;28;20649;-72
2021/07/10 06:33:14;;;;;;;21.25;14.40;;;17.90;99.90;;;;;;5041701;28;20041;-71
2021/07/10 06:35:40;;;;;;;21.00;14.52;;;17.80;99.90;;;;;;5053459;28;20035;-73
2021/07/10 06:38:06;;;;;;;28.77;16.80;;;17.80;99.90;;;;;;4986111;28;20036;-71
2021/07/10 06:40:32;;;;;;;20.02;14.57;;;17.80;99.90;;;;;;5026776;28;20117;-70
2021/07/10 06:42:58;;;;;;;21.75;13.80;;;17.80;99.90;;;;;;5033767;28;20036;-70
2021/07/10 06:45:23;;;;;;;22.25;13.93;;;18.00;99.90;;;;;;5034710;28;20029;-70
2021/07/10 06:47:50;;;;;;;18.92;13.32;;;18.00;99.90;;;;;;5034488;28;20033;-68
2021/07/10 06:50:20;;;;;;;20.33;13.50;;;18.10;99.90;;;;;;5034202;28;20041;-70
2021/07/10 06:52:47;;;;;;;20.98;13.90;;;18.20;99.90;;;;;;5034393;28;20069;-72
2021/07/10 06:55:18;;;;;;;21.67;14.38;;;18.30;99.90;;;;;;5033420;28;20033;-71
2021/07/10 06:57:44;;;;;;;19.23;13.77;;;18.30;99.90;;;;;;5033359;28;20036;-72
2021/07/10 07:00:17;;;;;;;18.25;13.38;;;18.50;99.90;;;;;;5034519;28;20092;-72
2021/07/10 07:02:43;;;;;;;20.42;13.10;;;18.50;99.90;;;;;;5037611;28;20033;-69
2021/07/10 07:05:11;;;;;;;18.80;11.90;;;18.50;99.90;;;;;;5054376;28;20064;-72
2021/07/10 07:07:38;;;;;;;17.77;11.75;;;18.70;99.90;;;;;;5022884;28;20038;-72
2021/07/10 07:10:06;;;;;;;17.42;11.50;;;18.70;99.90;;;;;;5029828;28;20030;-72
2021/07/10 07:12:32;;;;;;;15.65;11.00;;;18.70;99.90;;;;;;5013961;28;20046;-72
2021/07/10 07:14:58;;;;;;;21.77;10.13;;;18.80;99.90;;;;;;5014340;28;20030;-73
2021/07/10 07:17:25;;;;;;;16.02;12.02;;;18.90;99.90;;;;;;5012729;28;20029;-73
2021/07/10 07:19:50;;;;;;;39.35;26.67;;;18.90;99.90;;;;;;5014284;28;20034;-72
2021/07/10 07:22:16;;;;;;;17.63;10.70;;;18.90;99.90;;;;;;5013836;28;20502;-71
2021/07/10 07:24:42;;;;;;;16.25;11.23;;;18.90;99.90;;;;;;5014203;28;20042;-71
2021/07/10 07:27:08;;;;;;;17.95;11.20;;;18.90;99.90;;;;;;5014235;28;20076;-71
2021/07/10 07:29:36;;;;;;;18.15;10.10;;;19.00;99.90;;;;;;5028492;28;20035;-71
2021/07/10 07:32:03;;;;;;;16.00;8.32;;;19.00;99.90;;;;;;5033062;28;20522;-72
2021/07/10 07:34:29;;;;;;;11.93;8.73;;;19.10;99.90;;;;;;5049232;28;20122;-67
2021/07/10 07:36:55;;;;;;;16.52;10.07;;;19.30;99.90;;;;;;5053562;28;20154;-64
2021/07/10 07:39:21;;;;;;;15.65;9.95;;;19.30;99.90;;;;;;5053491;28;20497;-62
2021/07/10 07:41:49;;;;;;;12.75;9.57;;;19.30;99.90;;;;;;5053432;28;20036;-63
2021/07/10 07:44:15;;;;;;;14.73;8.75;;;19.30;99.90;;;;;;5053694;28;20037;-64
2021/07/10 07:46:41;;;;;;;16.30;8.68;;;19.60;99.90;;;;;;5050595;28;20029;-64
2021/07/10 07:49:07;;;;;;;12.57;8.35;;;19.70;99.90;;;;;;5033596;28;20029;-64
2021/07/10 07:51:33;;;;;;;14.18;8.25;;;19.60;99.90;;;;;;5033315;28;20082;-65
2021/07/10 07:53:59;;;;;;;15.48;8.20;;;19.60;99.90;;;;;;5033411;28;20441;-65
2021/07/10 07:56:25;;;;;;;11.15;7.68;;;19.60;99.90;;;;;;5031867;28;20087;-66
2021/07/10 07:58:51;;;;;;;15.00;8.73;;;19.80;99.90;;;;;;5031988;28;20033;-66
2021/07/10 08:01:17;;;;;;;14.10;8.85;;;19.90;99.90;;;;;;5033239;28;20479;-65
2021/07/10 08:03:42;;;;;;;12.32;7.57;;;19.80;99.90;;;;;;5031720;28;20037;-62
2021/07/10 08:06:08;;;;;;;13.35;8.15;;;19.90;99.90;;;;;;5033297;28;20025;-64
2021/07/10 08:08:36;;;;;;;20.05;7.88;;;20.00;99.90;;;;;;5028520;28;20125;-64
2021/07/10 08:11:07;;;;;;;11.38;7.13;;;20.10;99.90;;;;;;5013243;28;20049;-65
2021/07/10 08:13:34;;;;;;;11.32;7.50;;;20.20;99.90;;;;;;5013095;28;20034;-65
2021/07/10 08:16:01;;;;;;;10.05;7.32;;;20.20;99.90;;;;;;5012711;28;20121;-65
2021/07/10 08:18:27;;;;;;;13.60;6.03;;;20.20;99.90;;;;;;5013016;28;20089;-65
2021/07/10 08:20:53;;;;;;;13.70;7.40;;;20.40;99.90;;;;;;5013104;28;20061;-65
2021/07/10 08:23:19;;;;;;;13.27;7.85;;;20.60;99.90;;;;;;5012594;28;20395;-65
2021/07/10 08:25:46;;;;;;;7.70;6.00;;;20.70;99.90;;;;;;5012878;28;20026;-67
2021/07/10 08:28:12;;;;;;;12.68;6.88;;;20.80;99.90;;;;;;5012937;28;20030;-68
2021/07/10 08:30:38;;;;;;;13.13;7.70;;;21.10;99.90;;;;;;5012851;28;20114;-69
2021/07/10 08:33:05;;;;;;;11.05;7.60;;;21.10;99.90;;;;;;5012740;28;20110;-69
2021/07/10 08:35:31;;;;;;;10.80;7.03;;;21.20;99.90;;;;;;5017115;28;20033;-69
2021/07/10 08:37:56;;;;;;;9.93;6.05;;;21.20;99.90;;;;;;5011425;28;20030;-68
2021/07/10 08:40:22;;;;;;;9.60;7.40;;;21.30;99.90;;;;;;5011993;28;20030;-68
2021/07/10 08:42:50;;;;;;;9.20;6.40;;;21.50;99.90;;;;;;5012519;28;20117;-68
2021/07/10 08:45:16;;;;;;;8.35;6.00;;;21.30;99.90;;;;;;5012357;28;20425;-69
2021/07/10 08:47:44;;;;;;;8.95;5.65;;;21.40;99.90;;;;;;5015815;28;20032;-68
2021/07/10 08:50:19;;;;;;;6.72;4.70;;;21.50;99.90;;;;;;5032517;28;20053;-70
2021/07/10 08:52:45;;;;;;;7.97;4.82;;;21.70;99.90;;;;;;5032126;28;20030;-68
2021/07/10 08:55:13;;;;;;;5.63;4.50;;;21.70;99.90;;;;;;5032245;28;20475;-69
2021/07/10 08:57:41;;;;;;;6.95;5.07;;;21.80;99.90;;;;;;5031080;28;20080;-70
2021/07/10 09:00:15;;;;;;;7.03;4.53;;;21.90;99.90;;;;;;5030959;28;20060;-70
2021/07/10 09:02:53;;;;;;;10.20;4.78;;;22.10;99.90;;;;;;5030914;28;20040;-68
2021/07/10 09:05:19;;;;;;;8.57;5.80;;;22.10;99.90;;;;;;5025061;28;20033;-69
2021/07/10 09:08:11;;;;;;;7.00;4.85;;;22.10;99.90;;;;;;5012600;28;20038;-70
2021/07/10 09:10:39;;;;;;;7.32;5.03;;;22.10;99.90;;;;;;5012375;28;20050;-67
2021/07/10 09:13:05;;;;;;;10.77;5.55;;;22.10;99.90;;;;;;5012580;28;20034;-69
2021/07/10 09:15:32;;;;;;;6.75;4.45;;;22.30;99.90;;;;;;5012159;28;20356;-67
2021/07/10 09:17:58;;;;;;;6.70;4.88;;;22.60;99.90;;;;;;5011186;28;20612;-67
2021/07/10 09:20:28;;;;;;;5.88;4.38;;;22.70;99.90;;;;;;5011082;28;20080;-68
2021/07/10 09:22:55;;;;;;;8.30;4.13;;;22.70;99.90;;;;;;5012346;28;20033;-70
2021/07/10 09:25:29;;;;;;;8.13;5.15;;;22.90;99.90;;;;;;5011956;28;20421;-68
2021/07/10 09:28:02;;;;;;;7.55;5.30;;;22.80;99.90;;;;;;5011224;28;20463;-68
2021/07/10 09:30:37;;;;;;;7.45;4.70;;;22.90;99.90;;;;;;5011067;28;20449;-70
2021/07/10 09:33:22;;;;;;;8.15;4.80;;;22.90;99.90;;;;;;5010860;28;20042;-68
2021/07/10 09:35:59;;;;;;;6.30;4.60;;;23.10;99.90;;;;;;5010832;28;20030;-67
2021/07/10 09:38:35;;;;;;;7.78;4.22;;;23.30;99.90;;;;;;5012108;28;20113;-67
2021/07/10 09:41:11;;;;;;;5.70;4.10;;;23.30;99.90;;;;;;5012018;28;20187;-67
2021/07/10 09:43:39;;;;;;;6.57;4.07;;;23.60;99.90;;;;;;5023560;28;20068;-67
2021/07/10 09:46:09;;;;;;;6.05;4.25;;;23.50;99.90;;;;;;5051549;28;20029;-68
2021/07/10 09:48:40;;;;;;;9.82;5.25;;;23.50;99.90;;;;;;5051380;28;20393;-70
2021/07/10 09:51:26;;;;;;;6.15;3.92;;;23.60;99.90;;;;;;5034259;28;20033;-68
2021/07/10 09:54:11;;;;;;;7.63;3.30;;;24.00;99.90;;;;;;5050905;28;20067;-68
2021/07/10 09:56:58;;;;;;;4.88;3.05;;;24.30;99.90;;;;;;5037481;28;20033;-68
2021/07/10 09:59:24;;;;;;;4.93;3.05;;;24.30;99.90;;;;;;5054266;28;20517;-67
2021/07/10 10:01:51;;;;;;;5.40;3.15;;;23.80;99.90;;;;;;5055449;28;20104;-65
2021/07/10 10:04:28;;;;;;;5.35;3.58;;;23.90;99.90;;;;;;5055389;28;20087;-67
2021/07/10 10:06:57;;;;;;;5.78;3.65;;;24.20;99.90;;;;;;5015901;28;20386;-67
2021/07/10 10:09:29;;;;;;;3.80;2.67;;;24.30;99.90;;;;;;5015569;28;20406;-67
2021/07/10 10:12:17;;;;;;;3.85;2.85;;;23.90;99.90;;;;;;5015284;28;20049;-68
2021/07/10 10:14:58;;;;;;;5.47;2.50;;;24.30;99.90;;;;;;5014277;28;20026;-68
2021/07/10 10:17:25;;;;;;;4.80;2.88;;;24.30;99.90;;;;;;5015307;28;20113;-68
2021/07/10 10:19:53;;;;;;;6.30;2.72;;;24.20;99.90;;;;;;5015181;28;20057;-68
2021/07/10 10:22:20;;;;;;;3.88;2.60;;;24.30;99.90;;;;;;5014054;28;20037;-67
2021/07/10 10:24:52;;;;;;;7.10;3.05;;;24.50;99.90;;;;;;5013989;28;20053;-67
2021/07/10 10:27:20;;;;;;;3.58;2.50;;;24.50;99.90;;;;;;5015574;28;20110;-67
2021/07/10 10:29:52;;;;;;;6.88;2.65;;;24.80;99.90;;;;;;5015191;28;20073;-68
2021/07/10 10:32:18;;;;;;;7.72;2.78;;;24.60;99.20;;;;;;5015368;28;20150;-68
2021/07/10 10:34:45;;;;;;;3.58;2.35;;;24.60;99.90;;;;;;5020000;28;20053;-68
2021/07/10 10:37:11;;;;;;;5.20;2.80;;;24.90;98.20;;;;;;5053832;28;20036;-68
2021/07/10 10:39:37;;;;;;;4.40;2.30;;;24.90;99.90;;;;;;5054399;28;20515;-68
2021/07/10 10:42:16;;;;;;;3.65;2.83;;;25.00;99.40;;;;;;5054803;28;20036;-68
2021/07/10 10:44:44;;;;;;;4.45;2.92;;;25.00;98.80;;;;;;5053667;28;20083;-68
2021/07/10 10:47:12;;;;;;;5.00;2.53;;;25.20;97.90;;;;;;5054417;28;20052;-68
2021/07/10 10:49:43;;;;;;;3.25;2.10;;;25.10;98.10;;;;;;5054474;28;20595;-68
2021/07/10 10:52:29;;;;;;;3.80;2.40;;;25.30;97.40;;;;;;5054472;28;20113;-69
2021/07/10 10:55:16;;;;;;;6.50;2.50;;;25.50;97.90;;;;;;5054421;28;20033;-69
2021/07/10 10:57:59;;;;;;;4.60;2.60;;;25.90;96.40;;;;;;5054689;28;20132;-69
2021/07/10 11:00:36;;;;;;;4.22;2.85;;;25.80;97.50;;;;;;5036903;28;20086;-68
2021/07/10 11:03:11;;;;;;;3.40;2.53;;;25.20;97.60;;;;;;5037726;28;20033;-68
2021/07/10 11:05:53;;;;;;;4.75;2.35;;;25.00;97.60;;;;;;5044107;28;20025;-68
2021/07/10 11:08:19;;;;;;;3.50;2.00;;;24.50;97.00;;;;;;5033254;28;20504;-68
2021/07/10 11:11:05;;;;;;;5.43;3.25;;;24.70;98.30;;;;;;5033999;28;20037;-68
2021/07/10 11:13:46;;;;;;;3.80;2.25;;;24.90;98.80;;;;;;5032986;28;20041;-68
2021/07/10 11:16:19;;;;;;;4.53;2.50;;;24.70;98.00;;;;;;5049320;28;20030;-67
2021/07/10 11:18:49;;;;;;;4.00;1.83;;;24.90;97.20;;;;;;5033984;28;20101;-68
2021/07/10 11:21:39;;;;;;;3.25;2.33;;;24.90;97.30;;;;;;5033659;28;20513;-67
2021/07/10 11:24:19;;;;;;;4.10;2.15;;;25.10;97.40;;;;;;5034167;28;20029;-68
2021/07/10 11:26:54;;;;;;;;;;;25.40;97.20;;;;;;5034360;28;20108;-68
2021/07/10 11:29:42;;;;;;;3.78;2.40;;;25.50;96.40;;;;;;5033918;28;19986;-68
2021/07/10 11:32:11;;;;;;;6.47;2.08;;;25.30;95.70;;;;;;5017100;28;20049;-68
2021/07/10 11:34:51;;;;;;;3.95;2.10;;;25.60;96.10;;;;;;5033368;28;20029;-68
2021/07/10 11:37:29;;;;;;;3.40;2.08;;;25.70;96.40;;;;;;5033347;28;20441;-68
2021/07/10 11:40:08;;;;;;;3.92;2.33;;;26.00;95.90;;;;;;5035149;28;20056;-67
2021/07/10 11:42:53;;;;;;;4.32;2.08;;;26.20;96.40;;;;;;5026274;28;20482;-68
2021/07/10 11:45:26;;;;;;;3.55;1.85;;;25.90;95.70;;;;;;5013477;28;20064;-68
2021/07/10 11:48:20;;;;;;;4.90;1.98;;;25.60;95.20;;;;;;5030826;28;20561;-76
2021/07/10 11:50:59;;;;;;;3.15;1.90;;;26.00;96.00;;;;;;5032482;28;20049;-69
2021/07/10 11:53:25;;;;;;;3.42;2.28;;;26.40;95.30;;;;;;5033551;28;20045;-70
2021/07/10 11:55:51;;;;;;;2.47;1.77;;;26.90;93.60;;;;;;5033180;28;20207;-71
2021/07/10 11:58:20;;;;;;;4.80;2.88;;;27.30;93.50;;;;;;5033481;28;20068;-68
2021/07/10 12:00:47;;;;;;;4.45;3.03;;;27.00;93.90;;;;;;5015350;28;20033;-62
2021/07/10 12:03:22;;;;;;;4.18;2.05;;;26.60;93.50;;;;;;5031720;28;20029;-64
2021/07/10 12:05:50;;;;;;;3.25;2.08;;;26.30;95.00;;;;;;5032868;28;20267;-75
2021/07/10 12:08:19;;;;;;;3.33;2.20;;;26.40;94.30;;;;;;5014038;28;20514;-75
2021/07/10 12:10:49;;;;;;;3.20;2.17;;;26.80;93.90;;;;;;5012926;28;20034;-73
2021/07/10 12:13:18;;;;;;;3.97;2.53;;;26.80;93.20;;;;;;5012504;28;20046;-73
2021/07/10 12:15:48;;;;;;;4.85;2.22;;;27.00;94.90;;;;;;5013091;28;20026;-72
2021/07/10 12:18:18;;;;;;;3.95;2.05;;;27.30;93.20;;;;;;5012672;28;20063;-73
2021/07/10 12:20:55;;;;;;;3.40;2.10;;;27.70;93.80;;;;;;5011772;28;20522;-72
2021/07/10 12:23:32;;;;;;;3.13;1.85;;;28.00;92.60;;;;;;5013279;28;20038;-73
2021/07/10 12:26:13;;;;;;;2.80;1.90;;;28.00;92.10;;;;;;5028424;28;20398;-72
2021/07/10 12:28:48;;;;;;;2.47;1.73;;;27.60;92.60;;;;;;5031563;28;20038;-73
2021/07/10 12:31:32;;;;;;;3.28;1.58;;;27.10;92.60;;;;;;5031641;28;20108;-71
2021/07/10 12:34:09;;;;;;;2.60;1.58;;;27.40;92.80;;;;;;5032246;28;20497;-72
2021/07/10 12:36:37;;;;;;;3.40;1.70;;;27.10;92.00;;;;;;5027532;28;20494;-68
2021/07/10 12:39:18;;;;;;;4.13;1.98;;;27.20;91.60;;;;;;5011553;28;20029;-68
2021/07/10 12:41:59;;;;;;;3.20;2.00;;;26.80;90.60;;;;;;5012729;28;20030;-69
2021/07/10 12:44:38;;;;;;;3.80;1.60;;;27.30;91.00;;;;;;5012913;28;20057;-68